Terminal Aerodrome Forecast
Issued by NWS Charleston, WV

Current Version | Previous Version | Graphics & Text | Print | Product List | Glossary On
Versions: 1 2 3 4 5 6 7 8 9 10 11 12 13 14 15 16 17 18 19 20 21 22
000
FTUS41 KRLX 310300 AAA
TAFEKN
TAF AMD
KEKN 310301Z 3103/3124 00000KT P6SM SCT035
     FM312000 VRB03KT P6SM OVC030
     FM312100 32004KT 5SM -SHRA BR OVC025
     FM312300 VRB03KT 2SM -SHRA BR OVC020=

USA.gov is the U.S. government's official web portal to all federal, state and local government web resources and services.